Terminal Aerodrome Forecast
Issued by NWS Tampa Bay Area, FL

Home | Current Version | Previous Version | Text Only | Print | Product List | Glossary On
Versions: 1 2 3 4 5 6 7 8 9 10 11 12
000
FTUS42 KTBW 221700 RRA
TAFFMY
TAF
KFMY 221740Z 2218/2318 VRB03KT P6SM SCT040
     FM222000 29007KT P6SM VCTS SCT040CB BKN250
     FM230100 VRB03KT P6SM SCT130 BKN250
     FM231500 01006KT P6SM FEW030=

USA.gov is the U.S. government's official web portal to all federal, state and local government web resources and services.